Grand Princess — ZCBU5 — position and weather

sailwx.info

Track history (hours):
 
Tides and Currents Weather Stations Pressure Air Temp Water Temp Dewpoint Dewpoint Depression Visibility Wind Speed Wind Dir Waves Ship Positions

Grand Princess

Operator: Princess Cruises

Last reported at 2014-Sep-17 06:00 UTC. Time now 2014-Sep-18 05:43 UTC.
Position N 56°18' W 133°42'.

Length 289.5 m; beam 36 m; draft 8.5 m.

Type: Ship. MMSI: 310327000.

Wind from 190 at 13 knots

Waves 1.0 meters (3 feet), 1 second period

Barometer 1009.7 mb
Air temperature 12.0 ° C
Visibility: greater than 5.4 NM
Dewpoint 12.0 ° C
Water temperature 13.0 ° C

Date/timePositionNaut miles runAvg speedWind from/ knotsBaromVisibWave heightAir tempDewpointWater temp
2014-Sep-17 06:00N 56°18' W 133°42'3210.8 190 / 131009.7 5.4 1.012.012.013.0
2014-Sep-17 03:00N 56°06' W 132°48'115 6.2 340 / 31009.810.8 1.014.012.214.0
2014-Sep-16 08:25N 54°26' W 131°11'1314.2
2014-Sep-16 07:30N 54°14' W 131°02'4417.4
2014-Sep-16 05:00N 53°30' W 131°00'3812.5 350 / 141011.3 5.4 1.011.0 9.013.0
2014-Sep-16 02:00N 52°54' W 130°42'17117.1 340 / 131011.3 1.011.210.814.0
2014-Sep-15 16:00N 50°18' W 128°48'1919.5 010 / 161011.3 0.511.011.014.0
2014-Sep-15 15:00N 50°06' W 128°24'6418.5 330 / 191011.3 0.1 0.510.810.812.0
2014-Sep-15 11:33N 49°23' W 127°10'2019.7
2014-Sep-15 10:33N 49°11' W 126°47'2019.9
2014-Sep-15 09:33N 48°59' W 126°23'2019.9
2014-Sep-15 08:33N 48°47' W 125°59'2020.3
2014-Sep-15 07:33N 48°37' W 125°32'2019.8
2014-Sep-15 06:33N 48°31' W 125°03'2721.0
2014-Sep-15 05:18N 48°26' W 124°24'1720.8
2014-Sep-15 04:29N 48°19' W 124°01'1920.7
2014-Sep-15 03:33N 48°15' W 123°33'1413.8
2014-Sep-15 02:33N 48°11' W 123°13'1322.7
2014-Sep-15 02:00N 48°12' W 122°54'4 8.8 340 / 121010.810.8 0.520.0 8.611.0
2014-Sep-15 01:34N 48°11' W 122°48'1615.5
2014-Sep-15 00:34N 47°59' W 122°35'1716.8
2014-Sep-14 23:34N 47°43' W 122°26'6 5.7
2014-Sep-14 22:33N 47°38' W 122°23'0 0.0
2014-Sep-14 21:33N 47°38' W 122°23'0 0.0
2014-Sep-14 20:32N 47°38' W 122°23'0 0.0
2014-Sep-14 19:32N 47°38' W 122°23'0 0.0
2014-Sep-14 18:31N 47°38' W 122°23'0 0.0
2014-Sep-14 17:31N 47°38' W 122°23'0 0.0
2014-Sep-14 16:31N 47°38' W 122°23'0 0.0
2014-Sep-14 15:33N 47°38' W 122°23'0 0.0
2014-Sep-14 14:33N 47°38' W 122°23'0 0.1
2014-Sep-14 13:33N 47°38' W 122°23'5 5.0
2014-Sep-14 12:33N 47°41' W 122°28'1414.0
2014-Sep-14 11:33N 47°55' W 122°30'1414.0
2014-Sep-14 10:33N 48°07' W 122°41'1616.1
2014-Sep-14 09:33N 48°12' W 123°04'1515.4
2014-Sep-14 08:33N 48°11' W 123°27'1111.4
2014-Sep-14 07:33N 48°23' W 123°25'3 2.6
2014-Sep-14 06:33N 48°25' W 123°23'0 0.0
2014-Sep-14 05:32N 48°25' W 123°23'0 0.0
2014-Sep-14 04:32N 48°25' W 123°23'0 0.0
2014-Sep-14 03:31N 48°25' W 123°23'0 0.0
2014-Sep-14 02:31N 48°25' W 123°23'0 0.0
2014-Sep-14 01:33N 48°25' W 123°23'36 8.8
2014-Sep-13 21:32N 48°20' W 124°16'3114.8
2014-Sep-13 19:27N 48°28' W 125°01'1415.5
2014-Sep-13 18:33N 48°33' W 125°21'1716.8
2014-Sep-13 17:34N 48°41' W 125°43'1716.9
2014-Sep-13 16:34N 48°50' W 126°05'1017.0
2014-Sep-13 16:00N 48°54' W 126°18'817.6 020 / 31015.027.0 0.516.014.314.0
2014-Sep-13 15:34N 48°58' W 126°28'1918.8
2014-Sep-13 14:33N 49°08' W 126°53'1919.4
2014-Sep-13 13:33N 49°21' W 127°14'20719.6
2014-Sep-13 03:00N 51°42' W 131°12'21119.2 330 / 171020.810.8 0.515.413.815.0
2014-Sep-12 16:00N 54°48' W 134°00'23718.2 100 / 51026.810.8 12.412.014.0
2014-Sep-12 03:00N 58°42' W 135°06'   110 / 51028.010.8 11.0 9.412.0
2014-Sep-09 09:31N 54°29' W 131°14'1516.2
2014-Sep-09 08:33N 54°15' W 131°03'7516.5
2014-Sep-09 04:00N 53°00' W 130°48'17816.2 360 / 211017.310.8 1.015.011.314.0
2014-Sep-08 17:00N 50°18' W 128°48'9817.7 340 / 211014.610.8 1.014.012.914.0
2014-Sep-08 11:27N 49°14' W 126°53'1718.6
2014-Sep-08 10:33N 49°04' W 126°32'1818.5
2014-Sep-08 09:33N 48°53' W 126°10'2019.8
2014-Sep-08 08:33N 48°42' W 125°45'1919.5
2014-Sep-08 07:33N 48°33' W 125°19'1918.7
2014-Sep-08 06:33N 48°32' W 124°51'2019.6
2014-Sep-08 05:33N 48°26' W 124°23'1323.8
2014-Sep-08 05:00N 48°18' W 124°06'715.7 310 / 251010.3 0.0 1.013.811.210.0
2014-Sep-08 04:33N 48°18' W 123°56'2020.1
2014-Sep-08 03:33N 48°13' W 123°27'1110.7
2014-Sep-08 02:33N 48°12' W 123°10'1919.5
2014-Sep-08 01:33N 48°08' W 122°42'1919.5
2014-Sep-08 00:33N 47°51' W 122°28'1414.3
2014-Sep-07 23:34N 47°37' W 122°23'0 0.2
2014-Sep-07 21:31N 47°38' W 122°23'0 0.0
2014-Sep-07 20:33N 47°38' W 122°23'0 0.0
2014-Sep-07 19:33N 47°38' W 122°23'0 0.0
2014-Sep-07 18:29N 47°38' W 122°23'0 0.0
2014-Sep-07 17:29N 47°38' W 122°23'0 0.0
2014-Sep-07 16:32N 47°38' W 122°23'0 0.0
2014-Sep-07 15:31N 47°38' W 122°23'0 0.0
2014-Sep-07 14:31N 47°38' W 122°23'0 0.0
2014-Sep-07 13:33N 47°38' W 122°23'5 4.7
2014-Sep-07 12:33N 47°41' W 122°27'1211.9
2014-Sep-07 11:33N 47°53' W 122°29'1312.7
2014-Sep-07 10:33N 48°04' W 122°39'1312.6
2014-Sep-07 09:34N 48°11' W 122°55'1615.5
2014-Sep-07 08:33N 48°10' W 123°18'1110.7
2014-Sep-07 07:33N 48°19' W 123°28'7 6.4
2014-Sep-07 06:32N 48°25' W 123°23'  
Track history (hours):
 
Tides and Currents Weather Stations Pressure Air Temp Water Temp Dewpoint Dewpoint Depression Visibility Wind Speed Wind Dir Waves Ship Positions

Grand Princess

Operator: Princess Cruises

Last reported at 2014-Sep-17 06:00 UTC. Time now 2014-Sep-18 05:43 UTC.
Position N 56°18' W 133°42'.

Length 289.5 m; beam 36 m; draft 8.5 m.

Type: Ship. MMSI: 310327000.

Wind from 190 at 13 knots

Waves 1.0 meters (3 feet), 1 second period

Barometer 1009.7 mb
Air temperature 12.0 ° C
Visibility: greater than 5.4 NM
Dewpoint 12.0 ° C
Water temperature 13.0 ° C

Date/timePositionNaut miles runAvg speedWind from/ knotsBaromVisibWave heightAir tempDewpointWater temp
2014-Sep-17 06:00N 56°18' W 133°42'3210.8 190 / 131009.7 5.4 1.012.012.013.0
2014-Sep-17 03:00N 56°06' W 132°48'115 6.2 340 / 31009.810.8 1.014.012.214.0
2014-Sep-16 08:25N 54°26' W 131°11'1314.2
2014-Sep-16 07:30N 54°14' W 131°02'4417.4
2014-Sep-16 05:00N 53°30' W 131°00'3812.5 350 / 141011.3 5.4 1.011.0 9.013.0
2014-Sep-16 02:00N 52°54' W 130°42'17117.1 340 / 131011.3 1.011.210.814.0
2014-Sep-15 16:00N 50°18' W 128°48'1919.5 010 / 161011.3 0.511.011.014.0
2014-Sep-15 15:00N 50°06' W 128°24'6418.5 330 / 191011.3 0.1 0.510.810.812.0
2014-Sep-15 11:33N 49°23' W 127°10'2019.7
2014-Sep-15 10:33N 49°11' W 126°47'2019.9
2014-Sep-15 09:33N 48°59' W 126°23'2019.9
2014-Sep-15 08:33N 48°47' W 125°59'2020.3
2014-Sep-15 07:33N 48°37' W 125°32'2019.8
2014-Sep-15 06:33N 48°31' W 125°03'2721.0
2014-Sep-15 05:18N 48°26' W 124°24'1720.8
2014-Sep-15 04:29N 48°19' W 124°01'1920.7
2014-Sep-15 03:33N 48°15' W 123°33'1413.8
2014-Sep-15 02:33N 48°11' W 123°13'1322.7
2014-Sep-15 02:00N 48°12' W 122°54'4 8.8 340 / 121010.810.8 0.520.0 8.611.0
2014-Sep-15 01:34N 48°11' W 122°48'1615.5
2014-Sep-15 00:34N 47°59' W 122°35'1716.8
2014-Sep-14 23:34N 47°43' W 122°26'6 5.7
2014-Sep-14 22:33N 47°38' W 122°23'0 0.0
2014-Sep-14 21:33N 47°38' W 122°23'0 0.0
2014-Sep-14 20:32N 47°38' W 122°23'0 0.0
2014-Sep-14 19:32N 47°38' W 122°23'0 0.0
2014-Sep-14 18:31N 47°38' W 122°23'0 0.0
2014-Sep-14 17:31N 47°38' W 122°23'0 0.0
2014-Sep-14 16:31N 47°38' W 122°23'0 0.0
2014-Sep-14 15:33N 47°38' W 122°23'0 0.0
2014-Sep-14 14:33N 47°38' W 122°23'0 0.1
2014-Sep-14 13:33N 47°38' W 122°23'5 5.0
2014-Sep-14 12:33N 47°41' W 122°28'1414.0
2014-Sep-14 11:33N 47°55' W 122°30'1414.0
2014-Sep-14 10:33N 48°07' W 122°41'1616.1
2014-Sep-14 09:33N 48°12' W 123°04'1515.4
2014-Sep-14 08:33N 48°11' W 123°27'1111.4
2014-Sep-14 07:33N 48°23' W 123°25'3 2.6
2014-Sep-14 06:33N 48°25' W 123°23'0 0.0
2014-Sep-14 05:32N 48°25' W 123°23'0 0.0
2014-Sep-14 04:32N 48°25' W 123°23'0 0.0
2014-Sep-14 03:31N 48°25' W 123°23'0 0.0
2014-Sep-14 02:31N 48°25' W 123°23'0 0.0
2014-Sep-14 01:33N 48°25' W 123°23'36 8.8
2014-Sep-13 21:32N 48°20' W 124°16'3114.8
2014-Sep-13 19:27N 48°28' W 125°01'1415.5
2014-Sep-13 18:33N 48°33' W 125°21'1716.8
2014-Sep-13 17:34N 48°41' W 125°43'1716.9
2014-Sep-13 16:34N 48°50' W 126°05'1017.0
2014-Sep-13 16:00N 48°54' W 126°18'817.6 020 / 31015.027.0 0.516.014.314.0
2014-Sep-13 15:34N 48°58' W 126°28'1918.8
2014-Sep-13 14:33N 49°08' W 126°53'1919.4
2014-Sep-13 13:33N 49°21' W 127°14'20719.6
2014-Sep-13 03:00N 51°42' W 131°12'21119.2 330 / 171020.810.8 0.515.413.815.0
2014-Sep-12 16:00N 54°48' W 134°00'23718.2 100 / 51026.810.8 12.412.014.0
2014-Sep-12 03:00N 58°42' W 135°06'   110 / 51028.010.8 11.0 9.412.0
2014-Sep-09 09:31N 54°29' W 131°14'1516.2
2014-Sep-09 08:33N 54°15' W 131°03'7516.5
2014-Sep-09 04:00N 53°00' W 130°48'17816.2 360 / 211017.310.8 1.015.011.314.0
2014-Sep-08 17:00N 50°18' W 128°48'9817.7 340 / 211014.610.8 1.014.012.914.0
2014-Sep-08 11:27N 49°14' W 126°53'1718.6
2014-Sep-08 10:33N 49°04' W 126°32'1818.5
2014-Sep-08 09:33N 48°53' W 126°10'2019.8
2014-Sep-08 08:33N 48°42' W 125°45'1919.5
2014-Sep-08 07:33N 48°33' W 125°19'1918.7
2014-Sep-08 06:33N 48°32' W 124°51'2019.6
2014-Sep-08 05:33N 48°26' W 124°23'1323.8
2014-Sep-08 05:00N 48°18' W 124°06'715.7 310 / 251010.3 0.0 1.013.811.210.0
2014-Sep-08 04:33N 48°18' W 123°56'2020.1
2014-Sep-08 03:33N 48°13' W 123°27'1110.7
2014-Sep-08 02:33N 48°12' W 123°10'1919.5
2014-Sep-08 01:33N 48°08' W 122°42'1919.5
2014-Sep-08 00:33N 47°51' W 122°28'1414.3
2014-Sep-07 23:34N 47°37' W 122°23'0 0.2
2014-Sep-07 21:31N 47°38' W 122°23'0 0.0
2014-Sep-07 20:33N 47°38' W 122°23'0 0.0
2014-Sep-07 19:33N 47°38' W 122°23'0 0.0
2014-Sep-07 18:29N 47°38' W 122°23'0 0.0
2014-Sep-07 17:29N 47°38' W 122°23'0 0.0
2014-Sep-07 16:32N 47°38' W 122°23'0 0.0
2014-Sep-07 15:31N 47°38' W 122°23'0 0.0
2014-Sep-07 14:31N 47°38' W 122°23'0 0.0
2014-Sep-07 13:33N 47°38' W 122°23'5 4.7
2014-Sep-07 12:33N 47°41' W 122°27'1211.9
2014-Sep-07 11:33N 47°53' W 122°29'1312.7
2014-Sep-07 10:33N 48°04' W 122°39'1312.6
2014-Sep-07 09:34N 48°11' W 122°55'1615.5
2014-Sep-07 08:33N 48°10' W 123°18'1110.7
2014-Sep-07 07:33N 48°19' W 123°28'7 6.4
2014-Sep-07 06:32N 48°25' W 123°23'  

Dump ship's entire track history